Terminal Aerodrome Forecast
Issued by NWS

Current Version | Previous Version | Text Only | Print | Product List | Glossary Off
Versions: 1 2 3 4 5 6 7 8 9 10 11 12 13 14 15 16 17 18 19 20 21 22 23 24 25 26 27 28 29 30 31 32 33 34 35 36 37 38 39 40 41 42 43 44 45 46 47 48 49 50

000
FTUS44 KHGX 242050 AAA
TAFIAH
TAF AMD
KIAH 242050Z 2421/2524 16012KT P6SM VCSH SCT035 SCT050
     FM242300 13008KT P6SM FEW015 BKN250
     FM250600 11005KT P6SM FEW020 SCT250
     FM251400 10006KT P6SM VCSH SCT025 PROB30 2516/2520 TSRA
      BKN030CB
     FM252200 12009KT P6SM SCT035 BKN250=

USA.gov is the U.S. government's official web portal to all federal, state and local government web resources and services.